Time;durP1;ratioP1;P1;durP2;ratioP2;P2;SDS_P1;SDS_P2;PMS_P1;PMS_P2;Temp;Humidity;BMP_temperature;BMP_pressure;BME280_temperature;BME280_humidity;BME280_pressure;Samples;Min_cycle;Max_cycle;Signal;HPM_P1;HPM_P2
2023/12/07 05:17:49;;;;;;;54.20;22.30;;;-0.20;99.90;;;;;;5655258;24;20245;-85
2023/12/07 06:33:24;;;;;;;49.23;22.07;;;-0.10;99.90;;;;;;4825483;29;20238;-85
2023/12/07 06:37:46;;;;;;;47.10;22.53;;;-0.10;99.90;;;;;;4796807;29;20859;-83
2023/12/07 07:03:29;;;;;;;44.03;22.63;;;0.10;99.90;;;;;;4712534;29;20224;-82
2023/12/07 07:23:59;;;;;;;48.07;22.63;;;0.20;99.90;;;;;;4609030;30;20269;-87
2023/12/07 07:49:06;;;;;;;51.07;24.10;;;0.50;99.90;;;;;;4559380;30;20755;-84
2023/12/07 08:09:45;;;;;;;46.27;23.90;;;0.70;99.90;;;;;;4521092;31;20906;-88
2023/12/07 08:14:06;;;;;;;46.73;24.67;;;0.80;99.90;;;;;;4461478;31;20658;-84
2023/12/07 08:34:54;;;;;;;52.47;25.53;;;0.60;99.90;;;;;;4591947;30;20745;-88
2023/12/07 09:46:06;;;;;;;44.27;24.63;;;0.90;99.90;;;;;;4550683;30;20429;-87
2023/12/07 10:16:34;;;;;;;45.33;25.27;;;1.10;99.90;;;;;;4576185;30;20616;-86
2023/12/07 10:20:53;;;;;;;45.53;24.77;;;1.20;99.90;;;;;;4572765;30;20522;-86
2023/12/07 10:46:52;;;;;;;45.70;24.53;;;1.10;99.90;;;;;;4640674;30;20259;-88
2023/12/07 11:17:07;;;;;;;43.80;24.07;;;1.20;99.90;;;;;;4645511;30;20212;-85
2023/12/07 11:42:37;;;;;;;49.83;25.97;;;1.00;99.90;;;;;;4654017;30;20343;-85
2023/12/07 12:02:58;;;;;;;49.70;27.07;;;0.80;99.90;;;;;;4514358;31;21126;-84
2023/12/07 12:37:50;;;;;;;45.87;24.17;;;0.70;99.90;;;;;;4675536;29;20242;-85
2023/12/07 12:53:48;;;;;;;51.03;28.13;;;0.50;99.90;;;;;;4645761;29;20218;-86
2023/12/07 12:58:08;;;;;;;55.17;29.53;;;0.50;99.90;;;;;;4731857;29;20825;-86
2023/12/07 13:18:59;;;;;;;54.13;28.47;;;0.50;99.90;;;;;;4682904;29;20340;-86
2023/12/07 13:44:05;;;;;;;50.63;27.43;;;0.30;99.90;;;;;;4722575;29;20520;-85
2023/12/07 14:09:44;;;;;;;54.20;30.27;;;0.40;99.90;;;;;;4625990;30;20213;-84
2023/12/07 14:14:13;;;;;;;52.80;28.43;;;0.20;99.90;;;;;;4622539;30;21063;-87
2023/12/07 14:40:14;;;;;;;54.13;29.80;;;0.20;99.90;;;;;;4744462;29;20210;-84
2023/12/07 15:00:30;;;;;;;54.40;28.27;;;0.10;99.90;;;;;;4509633;31;21209;-87
2023/12/07 15:30:15;;;;;;;56.90;30.47;;;0.10;99.90;;;;;;4572463;30;20374;-81
2023/12/07 15:56:13;;;;;;;58.70;31.23;;;0.10;99.90;;;;;;4661275;30;20592;-86
2023/12/07 16:31:41;;;;;;;59.13;30.70;;;-0.10;99.90;;;;;;4721330;30;20255;-83
2023/12/07 17:06:37;;;;;;;55.13;28.33;;;-0.20;99.90;;;;;;4788877;29;20293;-83
2023/12/07 17:27:37;;;;;;;42.60;22.60;;;-0.20;99.90;;;;;;4800026;29;20211;-84
2023/12/07 17:52:27;;;;;;;50.73;27.27;;;-0.30;99.90;;;;;;4657512;30;20424;-85
2023/12/07 18:18:07;;;;;;;42.70;24.43;;;-0.40;99.90;;;;;;4686751;30;21980;-85
2023/12/07 18:43:35;;;;;;;46.13;25.03;;;-0.50;99.90;;;;;;4755267;29;20892;-85
2023/12/07 19:14:00;;;;;;;46.73;26.17;;;-0.60;99.90;;;;;;4729851;30;20521;-84
2023/12/07 19:34:26;;;;;;;40.93;22.10;;;-0.70;99.90;;;;;;4696584;30;20243;-84
2023/12/07 19:59:40;;;;;;;45.63;25.23;;;-0.70;99.90;;;;;;5510771;24;20348;-83
2023/12/07 20:04:02;;;;;;;41.37;23.73;;;-0.80;99.90;;;;;;4832599;29;20557;-85
2023/12/07 20:24:32;;;;;;;39.03;22.67;;;-0.80;99.90;;;;;;4775955;29;20202;-84
2023/12/07 20:45:17;;;;;;;38.67;20.87;;;-0.90;99.90;;;;;;4715743;30;20200;-85
2023/12/07 21:10:39;;;;;;;36.87;17.23;;;-1.00;99.90;;;;;;4727623;30;20640;-84
2023/12/07 21:30:33;;;;;;;42.03;23.60;;;-1.00;99.90;;;;;;4673421;30;20640;-83
2023/12/07 21:56:09;;;;;;;41.97;22.83;;;-1.00;99.90;;;;;;4735660;29;20211;-87
2023/12/07 22:26:47;;;;;;;39.47;20.83;;;-1.10;99.90;;;;;;4721688;30;20212;-83
2023/12/07 22:31:08;;;;;;;39.37;20.80;;;-1.10;99.90;;;;;;4700955;30;20236;-84
2023/12/07 22:52:07;;;;;;;41.27;22.47;;;-1.30;99.90;;;;;;4728981;30;20321;-83
2023/12/07 23:17:28;;;;;;;45.40;23.20;;;-1.40;99.90;;;;;;4726431;29;20224;-85
2023/12/07 23:37:34;;;;;;;39.43;21.93;;;-1.60;99.90;;;;;;4612808;30;20380;-85
